createdAt,value
2019-04-21T12:15:18.838Z,17.20
2019-04-21T12:16:00.936Z,17.57
2019-04-21T12:16:44.586Z,17.00
2019-04-21T12:17:25.961Z,16.60
2019-04-21T12:18:10.090Z,18.20
2019-04-21T12:18:52.517Z,17.87
2019-04-21T12:19:36.759Z,17.60
2019-04-21T12:20:40.284Z,16.62
2019-04-21T12:21:23.305Z,16.37
2019-04-21T12:22:23.624Z,17.50
2019-04-21T12:23:02.760Z,16.97
2019-04-21T12:23:44.669Z,16.73
2019-04-21T12:24:27.036Z,16.97
2019-04-21T12:25:11.141Z,17.00
2019-04-21T12:25:55.080Z,17.80
2019-04-21T12:26:38.016Z,16.00
2019-04-21T12:27:22.273Z,17.13
2019-04-21T12:28:03.645Z,17.23
2019-04-21T12:28:44.326Z,17.27
2019-04-21T12:29:26.944Z,19.63
2019-04-21T12:30:09.466Z,18.00
2019-04-21T12:30:55.797Z,16.40
2019-04-21T12:31:53.809Z,16.90
2019-04-21T12:32:51.941Z,16.97
2019-04-21T12:33:48.112Z,18.00
2019-04-21T12:34:30.208Z,18.13
2019-04-21T12:35:12.485Z,16.93
2019-04-21T12:35:53.738Z,17.20
2019-04-21T12:36:35.824Z,16.80
2019-04-21T12:37:17.078Z,18.07
2019-04-21T12:37:59.056Z,16.90
2019-04-21T12:38:48.848Z,20.27
2019-04-21T12:39:25.070Z,16.70
2019-04-21T12:40:06.899Z,16.17
2019-04-21T12:40:48.570Z,15.67
2019-04-21T12:41:30.745Z,18.40
2019-04-21T12:42:14.447Z,17.53
2019-04-21T12:42:56.697Z,14.77
2019-04-21T12:43:38.914Z,16.53
2019-04-21T12:44:22.495Z,15.80
2019-04-21T12:45:03.645Z,16.57
2019-04-21T12:45:44.437Z,16.90
2019-04-21T12:46:25.750Z,17.07
2019-04-21T12:47:07.842Z,17.33
2019-04-21T12:47:52.418Z,16.30
2019-04-21T12:48:35.730Z,17.20
2019-04-21T12:49:17.888Z,16.20
2019-04-21T12:50:00.660Z,16.10
2019-04-21T12:50:41.792Z,16.90
2019-04-21T12:51:25.995Z,16.30
2019-04-21T12:52:07.090Z,17.17
2019-04-21T12:52:49.631Z,17.43
2019-04-21T12:53:31.843Z,16.70
2019-04-21T12:54:12.943Z,16.27
2019-04-21T12:54:53.941Z,16.90
2019-04-21T12:55:38.402Z,16.63
2019-04-21T12:56:18.211Z,16.35
2019-04-21T12:57:01.256Z,16.83
2019-04-21T12:57:43.440Z,16.73
2019-04-21T12:58:25.484Z,15.77
2019-04-21T12:59:06.321Z,16.13
2019-04-21T12:59:48.727Z,16.30
2019-04-21T13:00:31.459Z,17.30
2019-04-21T13:01:14.713Z,17.23
2019-04-21T13:01:56.930Z,16.13
2019-04-21T13:02:38.062Z,16.80
2019-04-21T13:03:21.797Z,17.60
2019-04-21T13:04:03.924Z,17.13
2019-04-21T13:04:46.098Z,16.53
2019-04-21T13:05:29.520Z,16.47
2019-04-21T13:06:13.769Z,17.43
2019-04-21T13:06:55.884Z,18.30
2019-04-21T13:07:37.756Z,16.33
2019-04-21T13:08:21.640Z,15.63
2019-04-21T13:09:07.009Z,16.10
2019-04-21T13:09:44.681Z,17.47
2019-04-21T13:10:26.410Z,16.37
2019-04-21T13:11:09.399Z,15.70
2019-04-21T13:11:55.091Z,16.83
2019-04-21T13:12:36.052Z,15.47
2019-04-21T13:13:17.641Z,16.70
2019-04-21T13:13:59.767Z,16.20
2019-04-21T13:14:42.297Z,16.03
2019-04-21T13:15:22.939Z,16.03
2019-04-21T13:16:09.453Z,16.63
2019-04-21T13:16:51.869Z,14.70
2019-04-21T13:17:33.167Z,15.70
2019-04-21T13:18:18.451Z,15.60
2019-04-21T13:18:59.569Z,16.50
2019-04-21T13:19:43.145Z,16.97
2019-04-21T13:20:25.295Z,15.53
2019-04-21T13:21:07.604Z,16.07
2019-04-21T13:21:49.867Z,16.53
2019-04-21T13:22:32.088Z,17.03
2019-04-21T13:23:14.933Z,16.80
2019-04-21T13:23:58.798Z,15.47
2019-04-21T13:24:40.008Z,16.63
2019-04-21T13:25:23.508Z,15.70
2019-04-21T13:26:05.867Z,16.70
2019-04-21T13:26:53.609Z,16.70
2019-04-21T13:27:32.737Z,16.33
2019-04-21T13:28:16.531Z,16.30
2019-04-21T13:28:58.417Z,16.37
2019-04-21T13:29:42.161Z,16.00
2019-04-21T13:30:24.168Z,16.70
2019-04-21T13:31:08.487Z,20.43
2019-04-21T13:31:52.094Z,16.70
2019-04-21T13:32:33.498Z,16.90
2019-04-21T13:33:15.439Z,16.63
2019-04-21T13:33:57.812Z,15.50
2019-04-21T13:34:42.134Z,17.20
2019-04-21T13:35:26.629Z,16.80
2019-04-21T13:36:07.680Z,16.70
2019-04-21T13:36:49.829Z,17.17
2019-04-21T13:37:33.279Z,15.60
2019-04-21T13:38:24.938Z,15.97
2019-04-21T13:39:45.750Z,17.27
2019-04-21T13:40:35.940Z,16.50
2019-04-21T13:41:33.856Z,15.83
2019-04-21T13:42:16.077Z,17.00
2019-04-21T13:42:55.019Z,15.23
2019-04-21T13:43:33.105Z,16.90
2019-04-21T13:44:19.617Z,17.23
2019-04-21T13:45:02.409Z,16.60
2019-04-21T13:45:45.792Z,15.53
2019-04-21T13:46:27.201Z,16.60
2019-04-21T13:47:08.517Z,16.80
2019-04-21T13:47:50.371Z,16.70
2019-04-21T13:48:32.647Z,16.00
2019-04-21T13:49:17.236Z,16.60
2019-04-21T13:50:02.680Z,15.70
2019-04-21T13:50:43.560Z,17.57
2019-04-21T13:51:25.453Z,16.50
2019-04-21T13:52:11.042Z,28.43
2019-04-21T13:52:52.110Z,16.87
2019-04-21T13:53:34.958Z,15.77
2019-04-21T13:54:17.853Z,15.50
2019-04-21T13:55:01.267Z,17.20
2019-04-21T13:55:42.606Z,17.87
2019-04-21T13:56:26.705Z,16.67
2019-04-21T13:57:08.622Z,15.30
2019-04-21T13:57:50.508Z,16.97
2019-04-21T13:58:32.548Z,17.07
2019-04-21T13:59:14.442Z,15.50
2019-04-21T13:59:57.177Z,16.07
2019-04-21T14:00:42.098Z,16.33
2019-04-21T14:01:23.505Z,16.10
2019-04-21T14:02:06.734Z,15.70
2019-04-21T14:02:49.084Z,15.33
2019-04-21T14:03:35.377Z,15.90
2019-04-21T14:04:19.714Z,17.13
2019-04-21T14:05:03.440Z,15.93
2019-04-21T14:05:46.515Z,16.53
2019-04-21T14:06:27.781Z,17.63
2019-04-21T14:07:10.013Z,16.97
2019-04-21T14:07:52.549Z,16.43
2019-04-21T14:08:33.664Z,17.37
2019-04-21T14:09:17.720Z,17.50
2019-04-21T14:10:04.763Z,15.90
2019-04-21T14:10:47.213Z,16.70
2019-04-21T14:11:29.265Z,15.77
2019-04-21T14:12:11.635Z,16.90
2019-04-21T14:12:54.126Z,16.17
2019-04-21T14:13:36.463Z,16.27
2019-04-21T14:14:20.605Z,15.85
2019-04-21T14:15:02.310Z,17.93
2019-04-21T14:15:46.257Z,15.63
2019-04-21T14:16:29.538Z,15.43
2019-04-21T14:17:15.076Z,16.07
2019-04-21T14:17:56.887Z,16.10
2019-04-21T14:18:38.548Z,15.73
2019-04-21T14:19:21.356Z,16.13
2019-04-21T14:20:03.424Z,16.00
2019-04-21T14:20:44.974Z,15.93
2019-04-21T14:21:27.228Z,16.63
2019-04-21T14:22:13.917Z,17.00
2019-04-21T14:23:10.269Z,18.80
2019-04-21T14:23:46.048Z,16.73
2019-04-21T14:24:28.735Z,17.13
2019-04-21T14:25:15.478Z,16.33
2019-04-21T14:26:06.488Z,14.87
2019-04-21T14:26:56.163Z,16.60
2019-04-21T14:27:38.557Z,15.90
2019-04-21T14:28:22.020Z,16.33
2019-04-21T14:29:03.616Z,16.40
2019-04-21T14:29:53.401Z,16.20
2019-04-21T14:30:36.399Z,16.83
2019-04-21T14:31:17.354Z,16.17
2019-04-21T14:32:00.458Z,18.43
2019-04-21T14:32:42.077Z,15.80
2019-04-21T14:33:23.729Z,16.90
2019-04-21T14:34:06.438Z,16.20
2019-04-21T14:34:50.212Z,17.17
2019-04-21T14:35:32.803Z,16.97
2019-04-21T14:36:16.793Z,16.77
2019-04-21T14:36:56.900Z,16.80
2019-04-21T14:37:40.460Z,17.10
2019-04-21T14:38:22.766Z,16.53
2019-04-21T14:39:07.958Z,18.10
2019-04-21T14:39:57.867Z,16.90
2019-04-21T14:40:33.330Z,16.93
2019-04-21T14:41:14.548Z,17.70
2019-04-21T14:41:58.336Z,16.47
2019-04-21T14:42:40.080Z,17.17
2019-04-21T14:43:24.333Z,16.87
2019-04-21T14:44:06.830Z,16.50
2019-04-21T14:44:49.029Z,17.07
2019-04-21T14:45:42.837Z,16.30
2019-04-21T14:46:33.269Z,18.60
2019-04-21T14:47:42.212Z,17.37
2019-04-21T14:48:43.145Z,16.77
2019-04-21T14:49:44.925Z,16.03
2019-04-21T14:50:44.296Z,16.73
2019-04-21T14:51:45.397Z,17.43
2019-04-21T14:52:30.765Z,15.77
2019-04-21T14:53:16.044Z,16.23
2019-04-21T14:54:24.781Z,17.90
2019-04-21T14:55:10.658Z,17.63
2019-04-21T14:55:51.597Z,17.33
2019-04-21T14:56:33.488Z,16.60
2019-04-21T14:57:18.896Z,17.10
2019-04-21T14:58:01.189Z,16.60
2019-04-21T14:58:43.206Z,16.20
2019-04-21T14:59:26.949Z,17.20
2019-04-21T15:00:09.212Z,18.43
2019-04-21T15:01:10.405Z,16.70
2019-04-21T15:01:51.904Z,16.90
2019-04-21T15:02:35.998Z,16.57
2019-04-21T15:03:21.630Z,16.33
2019-04-21T15:04:07.984Z,16.73
2019-04-21T15:04:53.497Z,16.37
2019-04-21T15:05:35.508Z,16.77
2019-04-21T15:06:16.461Z,16.20
2019-04-21T15:06:57.428Z,17.27
2019-04-21T15:07:39.312Z,15.87
2019-04-21T15:08:21.470Z,17.57
2019-04-21T15:09:09.265Z,15.50
2019-04-21T15:10:02.525Z,16.73
2019-04-21T15:10:35.208Z,17.63
2019-04-21T15:11:18.021Z,19.30
2019-04-21T15:12:00.102Z,15.40
2019-04-21T15:12:41.560Z,16.33
2019-04-21T15:13:25.835Z,16.60
2019-04-21T15:14:08.222Z,16.10
2019-04-21T15:14:53.781Z,16.80
2019-04-21T15:15:38.045Z,17.13
2019-04-21T15:16:19.035Z,16.37
2019-04-21T15:17:00.855Z,17.50
2019-04-21T15:17:44.035Z,17.03
2019-04-21T15:18:26.497Z,17.70
2019-04-21T15:19:08.490Z,16.40
2019-04-21T15:19:59.678Z,16.83
2019-04-21T15:20:34.227Z,17.50
2019-04-21T15:21:17.567Z,17.27
2019-04-21T15:21:58.977Z,16.70
2019-04-21T15:22:44.269Z,16.80
2019-04-21T15:23:28.696Z,18.50
2019-04-21T15:24:12.162Z,15.67
2019-04-21T15:24:54.220Z,19.23
2019-04-21T15:25:36.252Z,16.60
2019-04-21T15:26:18.289Z,16.70
2019-04-21T15:26:59.275Z,16.50
2019-04-21T15:27:41.151Z,16.80
2019-04-21T15:28:25.379Z,15.97
2019-04-21T15:29:08.865Z,16.33
2019-04-21T15:29:53.014Z,18.87
2019-04-21T15:30:36.570Z,17.20
2019-04-21T15:31:24.157Z,16.90
2019-04-21T15:32:00.906Z,16.50
2019-04-21T15:32:42.306Z,15.53
2019-04-21T15:33:24.415Z,17.67
2019-04-21T15:34:07.644Z,16.47
2019-04-21T15:34:52.039Z,17.40
2019-04-21T15:35:33.498Z,17.03
2019-04-21T15:36:16.868Z,16.83
2019-04-21T15:36:59.940Z,17.23
2019-04-21T15:37:46.223Z,16.80
2019-04-21T15:38:33.993Z,17.00
2019-04-21T15:39:16.045Z,16.70
2019-04-21T15:40:17.337Z,16.83
2019-04-21T15:40:53.289Z,18.80
2019-04-21T15:41:30.517Z,16.80
2019-04-21T15:42:13.109Z,16.70
2019-04-21T15:42:57.292Z,16.70
2019-04-21T15:43:42.588Z,16.67
2019-04-21T15:44:27.059Z,17.07
2019-04-21T15:45:10.513Z,17.93
2019-04-21T15:46:00.691Z,16.60
2019-04-21T15:46:41.848Z,18.23
2019-04-21T15:47:23.972Z,17.30
2019-04-21T15:48:11.887Z,17.07
2019-04-21T15:48:55.410Z,16.43
2019-04-21T15:50:01.114Z,16.40
2019-04-21T15:50:35.676Z,16.90
2019-04-21T15:51:17.835Z,17.47
2019-04-21T15:52:02.097Z,17.00
2019-04-21T15:52:43.474Z,17.40
2019-04-21T15:53:27.855Z,18.50
2019-04-21T15:54:08.878Z,17.20
2019-04-21T15:54:50.363Z,18.03
2019-04-21T15:56:08.711Z,17.77
2019-04-21T15:56:56.891Z,17.23
2019-04-21T15:58:10.343Z,20.23
2019-04-21T15:59:08.961Z,17.67
2019-04-21T15:59:55.378Z,18.03
2019-04-21T16:00:52.507Z,18.33
2019-04-21T16:01:56.879Z,16.93
2019-04-21T16:02:42.788Z,17.60
2019-04-21T16:03:24.733Z,17.60
2019-04-21T16:04:06.589Z,17.93
2019-04-21T16:04:50.589Z,20.10
2019-04-21T16:05:32.974Z,17.10
2019-04-21T16:06:17.378Z,16.50
2019-04-21T16:06:59.383Z,17.10
2019-04-21T16:07:40.625Z,19.63
2019-04-21T16:08:22.749Z,17.50
2019-04-21T16:09:06.422Z,17.50
2019-04-21T16:09:48.132Z,17.80
2019-04-21T16:10:41.470Z,20.73
2019-04-21T16:11:15.670Z,16.93
2019-04-21T16:11:57.957Z,16.67
2019-04-21T16:12:40.155Z,17.40
2019-04-21T16:13:25.697Z,18.00
2019-04-21T16:14:07.927Z,17.50
2019-04-21T16:14:50.189Z,16.77
2019-04-21T16:15:34.579Z,16.03
2019-04-21T16:16:16.738Z,17.60
2019-04-21T16:17:01.188Z,17.07
2019-04-21T16:17:43.446Z,17.70
2019-04-21T16:18:24.604Z,17.33
2019-04-21T16:19:06.127Z,18.00
2019-04-21T16:19:48.024Z,18.87
2019-04-21T16:20:30.004Z,18.30
2019-04-21T16:21:11.715Z,17.40
2019-04-21T16:21:54.747Z,20.37
2019-04-21T16:22:39.326Z,16.93
2019-04-21T16:23:20.565Z,17.83
2019-04-21T16:24:02.619Z,16.83
2019-04-21T16:24:43.978Z,17.63
2019-04-21T16:25:26.722Z,17.60
2019-04-21T16:26:08.712Z,16.57
2019-04-21T16:26:50.859Z,15.80
2019-04-21T16:27:35.575Z,16.60
2019-04-21T16:28:19.223Z,15.60
2019-04-21T16:29:02.912Z,15.53
2019-04-21T16:29:45.742Z,14.40
2019-04-21T16:30:26.858Z,15.23
2019-04-21T16:31:14.242Z,15.07
2019-04-21T16:31:55.232Z,14.80
2019-04-21T16:32:39.458Z,15.03
2019-04-21T16:33:20.972Z,15.23
2019-04-21T16:34:03.120Z,14.83
2019-04-21T16:34:50.744Z,13.90
2019-04-21T16:35:26.724Z,13.70
2019-04-21T16:36:10.328Z,15.10
2019-04-21T16:36:49.804Z,13.30
2019-04-21T16:37:31.862Z,14.40
2019-04-21T16:38:13.357Z,13.23
2019-04-21T16:38:55.625Z,13.13
2019-04-21T16:39:38.563Z,12.87
2019-04-21T16:40:21.307Z,12.60
2019-04-21T16:41:06.472Z,12.17
2019-04-21T16:41:46.623Z,13.37
2019-04-21T16:42:30.302Z,13.00
2019-04-21T16:43:12.258Z,13.03
2019-04-21T16:43:55.397Z,13.17
2019-04-21T16:44:38.907Z,11.57
2019-04-21T16:45:22.938Z,12.80
2019-04-21T16:46:06.832Z,13.10
2019-04-21T16:46:50.035Z,12.17
2019-04-21T16:47:32.082Z,12.07
2019-04-21T16:48:15.014Z,11.80
2019-04-21T16:48:55.942Z,12.30
2019-04-21T16:49:38.185Z,11.70
2019-04-21T16:50:21.379Z,11.47
2019-04-21T16:51:22.115Z,11.90
2019-04-21T16:52:18.321Z,12.17
2019-04-21T16:53:10.177Z,11.40
2019-04-21T16:53:59.713Z,13.03
2019-04-21T16:54:41.921Z,11.77
2019-04-21T16:55:30.775Z,11.60
2019-04-21T16:56:24.775Z,11.13
2019-04-21T16:57:23.884Z,11.57
2019-04-21T16:58:26.613Z,11.33
2019-04-21T16:59:17.196Z,11.50
2019-04-21T17:00:02.475Z,10.70
2019-04-21T17:00:53.935Z,11.50
2019-04-21T17:01:32.133Z,11.13
2019-04-21T17:02:14.415Z,10.73
2019-04-21T17:02:56.570Z,11.40
2019-04-21T17:03:37.083Z,11.50
2019-04-21T17:04:20.472Z,11.30
2019-04-21T17:05:02.512Z,11.50
2019-04-21T17:05:45.904Z,11.40
2019-04-21T17:06:29.225Z,10.77
2019-04-21T17:07:11.348Z,10.10
2019-04-21T17:07:55.659Z,11.55
2019-04-21T17:08:38.847Z,11.30
2019-04-21T17:09:20.801Z,11.70
2019-04-21T17:10:02.550Z,11.23
2019-04-21T17:10:57.268Z,10.70
2019-04-21T17:11:31.584Z,11.03
2019-04-21T17:12:13.982Z,10.40
2019-04-21T17:12:53.722Z,10.28
2019-04-21T17:13:35.832Z,10.75
2019-04-21T17:15:18.869Z,10.70
2019-04-21T17:15:59.702Z,10.58
2019-04-21T17:16:24.410Z,10.85
2019-04-21T17:17:02.923Z,10.20
2019-04-21T17:17:32.300Z,10.18
2019-04-21T17:18:10.169Z,10.25
2019-04-21T17:18:47.636Z,10.48
2019-04-21T17:19:25.040Z,10.15
2019-04-21T17:20:15.669Z,9.93
2019-04-21T17:20:49.211Z,9.70
2019-04-21T17:21:28.298Z,9.77
2019-04-21T17:22:10.553Z,11.18
2019-04-21T17:22:51.618Z,9.87
2019-04-21T17:23:37.573Z,10.72
2019-04-21T17:24:20.173Z,9.80
2019-04-21T17:25:04.413Z,9.83
2019-04-21T17:25:45.392Z,9.53
2019-04-21T17:26:28.878Z,10.07
2019-04-21T17:27:11.100Z,9.63
2019-04-21T17:27:54.500Z,10.15
2019-04-21T17:28:36.349Z,10.00
2019-04-21T17:29:18.643Z,10.35
2019-04-21T17:30:01.189Z,9.78
2019-04-21T17:30:42.293Z,9.17
2019-04-21T17:31:24.475Z,9.40
2019-04-21T17:32:07.932Z,9.87
2019-04-21T17:32:49.819Z,9.03
2019-04-21T17:33:30.646Z,9.25
2019-04-21T17:34:16.424Z,9.23
2019-04-21T17:34:54.258Z,9.40
2019-04-21T17:35:36.384Z,9.20
2019-04-21T17:36:17.117Z,8.88
2019-04-21T17:36:59.241Z,9.13
2019-04-21T17:37:42.331Z,9.30
2019-04-21T17:38:23.890Z,9.33
2019-04-21T17:39:07.121Z,10.03
2019-04-21T17:39:49.985Z,9.30
2019-04-21T17:40:31.604Z,9.25
2019-04-21T17:41:23.669Z,8.83
2019-04-21T17:42:10.957Z,8.85
2019-04-21T17:42:46.423Z,9.07
2019-04-21T17:43:21.653Z,9.05
2019-04-21T17:44:02.636Z,9.35
2019-04-21T17:44:43.577Z,8.87
2019-04-21T17:45:24.841Z,8.70
2019-04-21T17:46:06.867Z,8.83
2019-04-21T17:46:54.483Z,8.90
2019-04-21T17:47:41.578Z,9.08
2019-04-21T17:48:15.913Z,8.38
2019-04-21T17:48:57.312Z,9.45
2019-04-21T17:49:39.277Z,8.10
2019-04-21T17:50:47.668Z,8.43
2019-04-21T17:52:01.067Z,8.40
2019-04-21T17:52:55.530Z,8.55
2019-04-21T17:53:46.759Z,8.18
2019-04-21T17:54:35.993Z,8.33
2019-04-21T17:55:18.380Z,8.18
2019-04-21T17:56:19.155Z,8.35
2019-04-21T17:57:08.911Z,8.27
2019-04-21T17:57:36.912Z,7.97
2019-04-21T17:58:14.996Z,8.63
2019-04-21T17:59:06.178Z,7.90
2019-04-21T17:59:58.812Z,8.20
2019-04-21T18:00:55.066Z,8.30
2019-04-21T18:01:20.866Z,8.63
2019-04-21T18:02:02.422Z,8.35
2019-04-21T18:02:44.488Z,8.58
2019-04-21T18:03:30.626Z,8.68
2019-04-21T18:04:12.624Z,8.08
2019-04-21T18:04:57.703Z,7.67
2019-04-21T18:05:34.654Z,7.67
2019-04-21T18:06:10.110Z,7.85
2019-04-21T18:07:27.549Z,7.77
2019-04-21T18:08:11.358Z,7.45
2019-04-21T18:08:51.953Z,7.87
2019-04-21T18:09:37.010Z,7.67
2019-04-21T18:10:11.543Z,8.18
2019-04-21T18:10:53.463Z,7.83
2019-04-21T18:11:47.648Z,7.65
2019-04-21T18:12:24.116Z,8.08
2019-04-21T18:12:56.992Z,7.90
2019-04-21T18:13:30.909Z,7.42
2019-04-21T18:14:15.965Z,7.80
2019-04-21T18:15:16.331Z,7.72
2019-04-21T18:15:56.751Z,7.70
2019-04-21T18:16:31.581Z,7.35
2019-04-21T18:17:06.554Z,8.18
2019-04-21T18:17:50.226Z,7.45
2019-04-21T18:18:32.923Z,7.37
2019-04-21T18:19:15.065Z,7.12
2019-04-21T18:19:59.587Z,6.67
2019-04-21T18:20:43.995Z,7.10
2019-04-21T18:21:34.686Z,7.33
2019-04-21T18:22:38.616Z,7.53
2019-04-21T18:23:39.493Z,7.40
2019-04-21T18:24:17.689Z,6.75
2019-04-21T18:25:01.016Z,7.22
2019-04-21T18:25:47.427Z,7.35
2019-04-21T18:26:35.712Z,7.00
2019-04-21T18:27:08.958Z,8.35
2019-04-21T18:27:50.549Z,7.87
2019-04-21T18:28:32.529Z,7.55
2019-04-21T18:29:13.674Z,7.85
2019-04-21T18:29:55.228Z,7.20
2019-04-21T18:30:58.369Z,6.72
2019-04-21T18:31:45.204Z,6.90
2019-04-21T18:32:26.398Z,7.03
2019-04-21T18:33:11.966Z,7.03
2019-04-21T18:33:59.894Z,6.75
2019-04-21T18:34:57.540Z,6.45
2019-04-21T18:35:41.867Z,7.40
2019-04-21T18:36:38.363Z,7.40
2019-04-21T18:37:47.593Z,6.80
2019-04-21T18:38:53.093Z,7.40
2019-04-21T18:39:38.183Z,7.12
2019-04-21T18:40:12.313Z,6.78
2019-04-21T18:40:53.050Z,6.27
2019-04-21T18:41:36.442Z,7.45
2019-04-21T18:42:47.799Z,6.95
2019-04-21T18:44:32.206Z,7.03
2019-04-21T18:46:13.607Z,6.60
2019-04-21T18:46:53.670Z,6.55
2019-04-21T18:47:48.922Z,7.20
2019-04-21T18:48:41.221Z,6.90
2019-04-21T18:49:19.817Z,6.78
2019-04-21T18:50:21.873Z,7.17
2019-04-21T18:51:40.276Z,6.70
2019-04-21T18:52:42.785Z,7.05
2019-04-21T18:53:41.412Z,7.35
2019-04-21T18:54:28.919Z,7.22
2019-04-21T18:55:09.544Z,7.35
2019-04-21T18:55:43.693Z,7.20
2019-04-21T18:56:20.756Z,7.17
2019-04-21T18:57:10.732Z,6.58
2019-04-21T18:57:47.909Z,7.22
2019-04-21T18:58:28.646Z,7.15
2019-04-21T18:59:12.168Z,7.70
2019-04-21T18:59:53.372Z,6.85
2019-04-21T19:00:36.998Z,6.85
2019-04-21T19:01:22.861Z,7.50
2019-04-21T19:02:06.363Z,7.42
2019-04-21T19:02:47.715Z,6.80
2019-04-21T19:03:35.407Z,6.95
2019-04-21T19:04:14.390Z,6.53
2019-04-21T19:04:55.860Z,7.47
2019-04-21T19:05:39.754Z,6.78
2019-04-21T19:06:25.544Z,6.55
2019-04-21T19:07:12.722Z,6.83
2019-04-21T19:08:07.477Z,6.70
2019-04-21T19:08:46.809Z,6.10
2019-04-21T19:09:35.306Z,6.92
2019-04-21T19:10:30.975Z,6.83
2019-04-21T19:10:56.282Z,6.87
2019-04-21T19:11:33.229Z,7.17
2019-04-21T19:12:23.630Z,6.87
2019-04-21T19:14:16.106Z,6.87
2019-04-21T19:14:38.720Z,7.05
2019-04-21T19:15:22.134Z,6.65
2019-04-21T19:19:23.683Z,6.80
2019-04-21T19:19:56.409Z,6.65
2019-04-21T19:20:32.970Z,7.15
2019-04-21T19:21:12.740Z,7.10
2019-04-21T19:22:00.132Z,7.08
2019-04-21T19:22:38.811Z,6.70
2019-04-21T19:23:31.052Z,6.95
2019-04-21T19:24:15.607Z,7.10
2019-04-21T19:24:48.930Z,7.03
2019-04-21T19:25:25.854Z,7.10
2019-04-21T19:26:21.603Z,7.50
2019-04-21T19:27:01.663Z,6.97
2019-04-21T19:27:45.263Z,7.15
2019-04-21T19:28:19.526Z,6.80
2019-04-21T19:29:16.319Z,8.00
2019-04-21T19:29:52.203Z,7.20
2019-04-21T19:30:38.576Z,7.47
2019-04-21T19:31:17.146Z,7.08
2019-04-21T19:31:54.806Z,7.03
2019-04-21T19:32:33.180Z,7.55
2019-04-21T19:33:14.426Z,6.90
2019-04-21T19:33:54.486Z,7.28
2019-04-21T19:34:29.316Z,6.75
2019-04-21T19:35:07.893Z,7.33
2019-04-21T19:35:49.793Z,7.08
2019-04-21T19:36:32.700Z,7.47
2019-04-21T19:37:20.006Z,7.58
2019-04-21T19:38:02.114Z,7.42
2019-04-21T19:38:49.265Z,7.10
2019-04-21T19:39:34.973Z,7.03
2019-04-21T19:40:15.840Z,7.12
2019-04-21T19:41:01.989Z,6.80
2019-04-21T19:41:45.740Z,7.15
2019-04-21T19:42:25.578Z,7.20
2019-04-21T19:43:07.830Z,7.62
2019-04-21T19:44:02.515Z,7.40
2019-04-21T19:44:42.310Z,7.20
2019-04-21T19:45:22.523Z,7.50
2019-04-21T19:46:11.765Z,7.45
2019-04-21T19:46:50.888Z,6.53
2019-04-21T19:47:41.858Z,7.60
2019-04-21T19:48:15.321Z,7.90
2019-04-21T19:49:10.499Z,7.93
2019-04-21T19:49:45.272Z,7.60
2019-04-21T19:50:28.500Z,7.17
2019-04-21T19:51:10.570Z,6.85
2019-04-21T19:51:46.303Z,6.58
2019-04-21T19:52:32.052Z,7.08
2019-04-21T19:53:20.017Z,6.80
2019-04-21T19:53:56.334Z,6.33
2019-04-21T19:54:35.907Z,7.30
2019-04-21T19:55:14.113Z,6.87
2019-04-21T19:55:56.722Z,7.30
2019-04-21T19:56:40.838Z,6.70
2019-04-21T19:57:23.384Z,6.15
2019-04-21T19:58:05.214Z,7.45
2019-04-21T19:58:47.562Z,8.07
2019-04-21T19:59:36.753Z,6.40
2019-04-21T20:00:14.001Z,8.05
2019-04-21T20:00:57.481Z,7.55
2019-04-21T20:01:39.362Z,7.30
2019-04-21T20:02:20.515Z,8.05
2019-04-21T20:03:02.928Z,7.70
2019-04-21T20:03:48.662Z,7.22
2019-04-21T20:04:34.002Z,7.83
2019-04-21T20:05:15.407Z,7.10
2019-04-21T20:06:00.487Z,8.10
2019-04-21T20:06:50.261Z,6.55
2019-04-21T20:07:27.569Z,7.60
2019-04-21T20:08:17.349Z,7.55
2019-04-21T20:08:59.108Z,7.62
2019-04-21T20:09:40.712Z,6.30
2019-04-21T20:10:32.808Z,6.70
2019-04-21T20:11:13.504Z,7.17
2019-04-21T20:11:48.747Z,7.28
2019-04-21T20:12:39.791Z,7.33
2019-04-21T20:13:25.938Z,6.55
2019-04-21T20:14:35.358Z,7.85
2019-04-21T20:14:55.313Z,7.08
2019-04-21T20:15:35.880Z,7.75
2019-04-21T20:16:15.076Z,7.10
2019-04-21T20:16:49.385Z,8.80
2019-04-21T20:17:34.791Z,7.75
2019-04-21T20:18:12.106Z,7.70
2019-04-21T20:18:52.913Z,6.73
2019-04-21T20:19:26.705Z,7.10
2019-04-21T20:20:08.880Z,7.45
2019-04-21T20:20:50.233Z,7.10
2019-04-21T20:21:31.154Z,7.37
2019-04-21T20:22:11.734Z,7.20
2019-04-21T20:22:53.815Z,7.12
2019-04-21T20:23:40.621Z,8.23
2019-04-21T20:24:23.295Z,8.03
2019-04-21T20:25:09.905Z,7.10
2019-04-21T20:25:49.824Z,7.12
2019-04-21T20:26:37.686Z,7.08
2019-04-21T20:27:19.799Z,6.58
2019-04-21T20:28:05.486Z,7.10
2019-04-21T20:28:48.855Z,7.33
2019-04-21T20:29:37.484Z,7.37
2019-04-21T20:30:21.085Z,7.78
2019-04-21T20:31:06.590Z,8.30
2019-04-21T20:31:45.996Z,7.85
2019-04-21T20:32:31.275Z,7.35
2019-04-21T20:33:36.992Z,7.83
2019-04-21T20:34:00.154Z,7.80
2019-04-21T20:34:38.676Z,7.90
2019-04-21T20:35:32.405Z,7.53
2019-04-21T20:36:09.517Z,6.92
2019-04-21T20:36:51.869Z,7.42
2019-04-21T20:37:26.552Z,8.83
2019-04-21T20:38:07.267Z,7.45
2019-04-21T20:38:47.050Z,7.90
2019-04-21T20:39:28.359Z,7.95
2019-04-21T20:40:19.713Z,7.95
2019-04-21T20:40:59.137Z,7.97
2019-04-21T20:41:43.942Z,8.08
2019-04-21T20:42:23.817Z,8.05
2019-04-21T20:43:22.429Z,7.47
2019-04-21T20:44:02.483Z,7.85
2019-04-21T20:44:43.743Z,7.53
2019-04-21T20:46:03.617Z,7.55
2019-04-21T20:46:45.929Z,8.00
2019-04-21T20:47:20.001Z,7.55
2019-04-21T20:47:54.634Z,7.80
2019-04-21T20:48:46.565Z,7.53
2019-04-21T20:49:31.634Z,7.60
2019-04-21T20:50:16.409Z,7.72
2019-04-21T20:51:06.570Z,7.70
2019-04-21T20:51:46.863Z,8.63
2019-04-21T20:52:29.410Z,8.25
2019-04-21T20:53:11.192Z,7.10
2019-04-21T20:53:50.871Z,7.95
2019-04-21T20:54:34.947Z,8.05
2019-04-21T20:55:15.544Z,7.78
2019-04-21T20:55:59.288Z,7.90
2019-04-21T20:56:43.848Z,8.50
2019-04-21T20:57:26.094Z,7.28
2019-04-21T20:58:04.236Z,8.10
2019-04-21T20:58:51.870Z,7.35
2019-04-21T20:59:28.636Z,7.65
2019-04-21T21:00:16.861Z,7.47
2019-04-21T21:01:58.305Z,7.95
2019-04-21T21:02:20.121Z,7.10
2019-04-21T21:03:07.105Z,7.08
2019-04-21T21:03:50.568Z,7.60
2019-04-21T21:04:28.128Z,7.75
2019-04-21T21:05:10.452Z,8.55
2019-04-21T21:05:53.015Z,7.45
2019-04-21T21:06:49.619Z,7.40
2019-04-21T21:07:40.212Z,7.70
2019-04-21T21:08:21.518Z,7.55
2019-04-21T21:08:56.875Z,7.97
2019-04-21T21:09:32.404Z,7.90
2019-04-21T21:10:16.920Z,7.95
2019-04-21T21:10:55.179Z,8.50
2019-04-21T21:11:53.548Z,7.35
2019-04-21T21:13:22.245Z,7.35
2019-04-21T21:14:05.733Z,7.42
2019-04-21T21:14:36.456Z,7.75
2019-04-21T21:15:09.998Z,8.25
2019-04-21T21:16:13.986Z,8.50
2019-04-21T21:16:50.740Z,8.13
2019-04-21T21:18:26.255Z,8.13
2019-04-21T21:19:10.599Z,8.17
2019-04-21T21:19:40.068Z,7.45
2019-04-21T21:20:29.470Z,7.90
2019-04-21T21:21:04.575Z,8.40
2019-04-21T21:21:45.673Z,7.85
2019-04-21T21:22:35.115Z,7.80
2019-04-21T21:23:11.942Z,7.58
2019-04-21T21:23:58.927Z,7.50
2019-04-21T21:24:55.796Z,7.35
2019-04-21T21:25:34.080Z,8.58
2019-04-21T21:26:11.496Z,7.75
2019-04-21T21:26:48.616Z,7.85
2019-04-21T21:27:30.858Z,8.00
2019-04-21T21:28:07.729Z,7.97
2019-04-21T21:28:51.992Z,6.83
2019-04-21T21:29:33.565Z,8.05
2019-04-21T21:30:18.647Z,7.28
2019-04-21T21:31:08.408Z,7.63
2019-04-21T21:31:47.528Z,6.50
2019-04-21T21:32:34.292Z,7.20
2019-04-21T21:33:13.651Z,6.58
2019-04-21T21:34:02.394Z,8.08
2019-04-21T21:35:17.864Z,7.62
2019-04-21T21:36:06.437Z,7.40
2019-04-21T21:36:51.100Z,7.53
2019-04-21T21:37:36.835Z,7.50
2019-04-21T21:38:13.132Z,7.92
2019-04-21T21:38:55.889Z,8.78
2019-04-21T21:39:48.711Z,7.80
2019-04-21T21:40:22.234Z,7.80
2019-04-21T21:40:56.928Z,7.77
2019-04-21T21:41:33.555Z,7.90
2019-04-21T21:42:13.936Z,7.15
2019-04-21T21:42:55.348Z,7.60
2019-04-21T21:43:37.776Z,7.70
2019-04-21T21:44:21.246Z,7.10
2019-04-21T21:45:06.117Z,6.75
2019-04-21T21:45:50.335Z,7.40
2019-04-21T21:46:40.333Z,7.30
2019-04-21T21:47:19.166Z,7.50
2019-04-21T21:48:06.914Z,7.55
2019-04-21T21:48:44.961Z,7.60
2019-04-21T21:49:29.424Z,7.45
2019-04-21T21:50:08.879Z,6.78
2019-04-21T21:50:50.942Z,6.90
2019-04-21T21:51:38.395Z,7.12
2019-04-21T21:52:14.424Z,7.10
2019-04-21T21:52:57.913Z,7.43
2019-04-21T21:53:33.769Z,6.87
2019-04-21T21:54:13.901Z,7.65
2019-04-21T21:54:55.997Z,8.03
2019-04-21T21:55:38.483Z,8.05
2019-04-21T21:56:18.806Z,7.55
2019-04-21T21:57:02.650Z,7.37
2019-04-21T21:57:51.749Z,7.75
2019-04-21T21:58:36.439Z,7.47
2019-04-21T21:59:16.434Z,8.45
2019-04-21T21:59:58.799Z,8.20